Drury, Missouri
Current Conditions -  °F | °C
As of 5:53 AM on Sunday 23 Nov 2014 (Local Time) from KUNO Reporting Station
Light Rain Light Rain  
Wind Chill: 52°   Ceiling: 500
Heat Index: 52°   Visibility: 6mi
Dew Point: 50°   Wind: 12mph
Humidity: 93%   Direction: 140°SE
Pressure: 29.7"   Gusts: 22mph
Location:  36.93°N, 92.32°W
Report Text: KUNO 231153Z AUTO 14010G19KT 6SM -RA BR OVC005 11/10 A2970 RMK AO2 RAB08 SLP053 P0002 60002 70045 T01110100 10117 20100 58016
Loading
Personal Weather Stations






























Interactive Weather Map New forecast layout! Learn more

10-Day Weather Forecast

Advertisements
Track Severe Weather on mobile